Time;durP1;ratioP1;P1;durP2;ratioP2;P2;SDS_P1;SDS_P2;PMS_P1;PMS_P2;Temp;Humidity;BMP_temperature;BMP_pressure;BME280_temperature;BME280_humidity;BME280_pressure;Samples;Min_cycle;Max_cycle;Signal;HPM_P1;HPM_P2
2022/06/22 00:02:15;;;;;;;51.33;28.67;;;;;;;16.67;72.98;98007.25;4937192;29;20079;-90
2022/06/22 00:04:47;;;;;;;49.50;26.42;;;;;;;16.76;72.77;98022.72;4908413;29;20138;-90
2022/06/22 00:07:37;;;;;;;47.95;26.35;;;;;;;16.71;73.20;98006.47;4923594;29;20543;-90
2022/06/22 00:10:28;;;;;;;45.20;26.30;;;;;;;16.29;73.37;97944.34;4934715;28;20053;-90
2022/06/22 00:12:57;;;;;;;49.40;27.15;;;;;;;16.55;73.98;97991.00;4925235;29;20118;-89
2022/06/22 00:15:40;;;;;;;46.10;26.77;;;;;;;16.72;74.46;98019.09;4939546;29;20051;-90
2022/06/22 00:18:45;;;;;;;44.33;24.63;;;;;;;16.33;73.89;97958.97;4944700;29;20449;-90
2022/06/22 00:21:33;;;;;;;42.60;23.95;;;;;;;16.52;73.70;97999.25;4838309;29;20146;-90
2022/06/22 00:24:22;;;;;;;45.58;23.80;;;;;;;16.73;73.57;98018.72;4829723;29;20181;-90
2022/06/22 00:26:58;;;;;;;42.33;22.15;;;;;;;16.51;73.04;97995.72;4833313;29;20045;-91
2022/06/22 00:29:33;;;;;;;41.13;23.55;;;;;;;16.22;73.28;97953.38;4861546;29;20040;-90
2022/06/22 00:32:16;;;;;;;44.63;23.42;;;;;;;16.36;73.48;97974.75;4832711;29;20561;-89
2022/06/22 00:34:42;;;;;;;39.78;22.52;;;;;;;16.15;73.99;97947.81;4862038;29;20049;-89
2022/06/22 00:37:22;;;;;;;38.53;23.02;;;;;;;16.42;73.74;97981.47;4863207;29;20065;-89
2022/06/22 00:39:58;;;;;;;38.17;22.38;;;;;;;16.34;74.22;97968.81;4846716;29;20504;-90
2022/06/22 00:42:42;;;;;;;39.47;22.90;;;;;;;16.36;73.98;97969.25;4862207;29;20049;-90
2022/06/22 00:45:12;;;;;;;38.92;23.13;;;;;;;16.52;74.18;97989.03;4846767;29;20037;-89
2022/06/22 00:47:45;;;;;;;47.83;22.17;;;;;;;16.48;74.20;97987.44;4848054;29;20048;-90
2022/06/22 00:50:21;;;;;;;39.70;21.98;;;;;;;16.52;73.98;97994.53;4843163;29;20105;-90
2022/06/22 00:53:11;;;;;;;37.85;21.88;;;;;;;16.65;74.13;98026.19;4844898;29;20069;-88
2022/06/22 00:55:47;;;;;;;44.40;21.40;;;;;;;16.40;73.76;97981.88;4867667;29;20080;-90
2022/06/22 00:58:35;;;;;;;38.35;22.48;;;;;;;16.69;73.74;98023.44;4938816;29;20047;-89
2022/06/22 01:01:20;;;;;;;40.63;22.05;;;;;;;16.37;73.94;97976.34;4929464;29;20058;-90
2022/06/22 01:03:59;;;;;;;47.30;23.38;;;;;;;16.55;74.82;98001.25;4920926;29;20059;-90
2022/06/22 01:06:52;;;;;;;41.83;23.63;;;;;;;16.68;75.12;98028.13;4955779;29;20043;-90
2022/06/22 01:09:49;;;;;;;38.88;23.00;;;;;;;16.70;74.94;98021.47;4937541;29;20131;-90
2022/06/22 01:12:29;;;;;;;40.28;22.50;;;;;;;16.65;75.82;98012.38;4922683;29;20041;-90
2022/06/22 01:15:05;;;;;;;33.70;21.05;;;;;;;16.46;75.50;97990.59;4923834;29;20047;-91
2022/06/22 01:17:39;;;;;;;36.58;19.98;;;;;;;16.33;74.97;97981.03;4939913;29;20151;-90
2022/06/22 01:20:47;;;;;;;33.95;19.77;;;;;;;16.76;74.09;98033.75;4908544;29;20053;-89
2022/06/22 01:23:50;;;;;;;35.22;19.15;;;;;;;16.79;74.07;98041.25;4907812;29;20067;-89
2022/06/22 01:26:33;;;;;;;39.15;17.70;;;;;;;16.62;73.12;98015.09;4924131;29;20047;-89
2022/06/22 01:29:12;;;;;;;34.25;17.15;;;;;;;16.44;72.99;97984.66;4937899;29;20417;-90
2022/06/22 01:32:02;;;;;;;29.23;15.20;;;;;;;16.59;72.07;98010.38;4939532;29;20062;-89
2022/06/22 01:34:35;;;;;;;34.47;14.68;;;;;;;16.57;71.53;98010.72;4902904;29;20532;-91
2022/06/22 01:37:22;;;;;;;36.33;14.15;;;;;;;16.71;70.96;98042.34;4938201;29;20094;-91
2022/06/22 01:39:49;;;;;;;30.45;13.50;;;;;;;16.34;70.80;98004.69;4921885;29;20050;-88
2022/06/22 01:42:34;;;;;;;23.83;13.50;;;;;;;16.43;71.45;98050.06;4944673;29;20043;-87
2022/06/22 01:45:10;;;;;;;24.10;13.30;;;;;;;15.98;71.78;98007.94;4933723;29;20050;-88
2022/06/22 01:47:41;;;;;;;28.52;13.38;;;;;;;16.28;72.21;98053.88;4921380;29;20185;-88
2022/06/22 01:50:46;;;;;;;27.70;13.93;;;;;;;16.28;72.15;98045.59;4937791;29;20047;-88
2022/06/22 01:53:34;;;;;;;37.08;14.38;;;;;;;16.53;71.69;98056.03;5087436;23;20114;-91
2022/06/22 01:56:18;;;;;;;63.45;14.95;;;;;;;16.64;71.77;98062.41;4933734;29;20444;-90
2022/06/22 01:58:52;;;;;;;29.10;13.18;;;;;;;16.65;71.18;98053.75;4931732;29;20036;-91
2022/06/22 02:02:01;;;;;;;29.70;14.02;;;;;;;16.72;72.32;98066.81;4924692;29;20093;-92
2022/06/22 02:04:47;;;;;;;31.65;14.55;;;;;;;16.68;72.84;98071.50;4923925;29;20546;-91
2022/06/22 02:07:44;;;;;;;30.40;15.48;;;;;;;16.78;72.56;98075.53;4939281;29;20047;-95
2022/06/22 02:10:27;;;;;;;26.88;12.30;;;;;;;16.79;70.80;98069.66;4906595;29;20394;-92
2022/06/22 02:13:37;;;;;;;24.33;12.35;;;;;;;16.82;70.86;98060.59;4954186;29;20043;-92
2022/06/22 02:16:14;;;;;;;29.65;12.55;;;;;;;16.63;70.55;98056.09;4906587;29;20046;-91
2022/06/22 02:18:47;;;;;;;29.45;13.00;;;;;;;16.72;71.67;98066.00;4937974;29;20138;-92
2022/06/22 02:21:16;;;;;;;22.08;11.75;;;;;;;16.74;70.62;98069.97;4903401;29;20408;-91
2022/06/22 02:23:46;;;;;;;28.02;12.05;;;;;;;16.56;71.69;98045.03;4920125;29;20071;-92
2022/06/22 02:26:20;;;;;;;27.25;12.15;;;;;;;16.39;72.32;98018.09;4908223;29;20047;-92
2022/06/22 02:28:48;;;;;;;21.25;10.55;;;;;;;16.45;70.50;98022.88;4910729;29;20043;-92
2022/06/22 02:31:18;;;;;;;26.77;10.23;;;;;;;16.40;70.32;98012.22;4928043;29;20031;-91
2022/06/22 02:33:49;;;;;;;20.30;10.05;;;;;;;16.62;69.39;98042.69;4929513;29;20134;-92
2022/06/22 02:36:16;;;;;;;22.10;10.57;;;;;;;16.67;71.23;98056.91;4944902;29;20039;-92
2022/06/22 02:46:45;;;;;;;17.35;8.32;;;;;;;16.85;69.35;98059.84;4927700;29;20507;-93
2022/06/22 02:49:27;;;;;;;19.67;8.23;;;;;;;16.84;69.21;98065.72;4911623;29;20043;-92
2022/06/22 02:51:54;;;;;;;17.48;7.82;;;;;;;16.77;68.01;98058.19;4924467;29;20055;-93
2022/06/22 02:54:38;;;;;;;18.20;6.60;;;;;;;16.67;68.02;98045.88;4907488;29;20054;-93
2022/06/22 02:57:35;;;;;;;13.57;7.00;;;;;;;16.83;68.31;98064.94;4907026;29;20044;-93
2022/06/22 03:00:03;;;;;;;16.85;7.32;;;;;;;16.63;69.27;98042.31;4906877;29;20115;-93
2022/06/22 03:02:30;;;;;;;23.85;7.40;;;;;;;16.88;68.23;98072.03;4906763;29;20046;-93
2022/06/22 03:04:59;;;;;;;17.85;7.38;;;;;;;16.51;67.85;98017.78;4906982;29;20138;-93
2022/06/22 03:07:25;;;;;;;30.25;8.23;;;;;;;16.50;70.10;98010.69;4907835;29;20040;-93
2022/06/22 03:09:52;;;;;;;16.58;6.95;;;;;;;16.61;68.25;98030.84;4908963;29;20424;-92
2022/06/22 03:12:20;;;;;;;20.15;7.10;;;;;;;16.91;67.78;98069.31;4907955;29;20082;-93
2022/06/22 03:15:00;;;;;;;16.27;7.13;;;;;;;16.76;67.47;98042.81;4926887;29;20052;-91
2022/06/22 03:17:35;;;;;;;13.43;7.00;;;;;;;16.78;67.34;98042.41;4911448;29;20051;-92
2022/06/22 03:20:07;;;;;;;28.45;8.43;;;;;;;16.65;68.37;98015.13;4910697;29;20413;-93
2022/06/22 03:22:39;;;;;;;12.95;7.10;;;;;;;16.80;67.36;98031.78;4909549;29;20134;-93
2022/06/22 03:25:11;;;;;;;12.57;7.43;;;;;;;17.07;67.27;98076.50;4923425;29;20047;-95
2022/06/22 03:27:44;;;;;;;18.70;7.90;;;;;;;16.99;67.53;98070.16;4908019;29;20047;-93
2022/06/22 03:30:24;;;;;;;21.05;7.35;;;;;;;16.80;67.61;98051.13;4907948;29;20473;-93
2022/06/22 03:32:57;;;;;;;14.02;7.32;;;;;;;16.99;67.97;98081.19;4903697;29;20051;-93
2022/06/22 03:35:43;;;;;;;20.73;6.78;;;;;;;16.57;67.46;98015.47;4903530;29;20090;-93
2022/06/22 03:38:18;;;;;;;16.00;6.45;;;;;;;17.06;66.55;98086.75;4917808;29;20425;-93
2022/06/22 03:41:02;;;;;;;14.05;6.55;;;;;;;16.61;66.49;98033.63;4888405;29;20044;-93
2022/06/22 03:43:31;;;;;;;13.32;7.00;;;;;;;16.58;66.35;98036.34;4887502;29;20121;-95
2022/06/22 03:46:05;;;;;;;12.75;6.80;;;;;;;16.50;67.04;98018.19;4888968;29;20044;-92
2022/06/22 03:48:57;;;;;;;17.90;7.55;;;;;;;16.91;66.75;98088.63;4905326;29;20044;-93
2022/06/22 03:51:50;;;;;;;18.05;7.32;;;;;;;16.61;66.11;98036.38;4883364;29;20192;-92
2022/06/22 03:54:25;;;;;;;17.40;7.32;;;;;;;16.51;65.95;98026.06;4869331;29;20045;-93
2022/06/22 03:57:03;;;;;;;12.40;6.55;;;;;;;16.83;66.94;98075.97;4886095;29;20044;-93
2022/06/22 03:59:31;;;;;;;14.88;7.07;;;;;;;16.52;67.07;98022.13;4902387;29;20041;-94
2022/06/22 04:01:59;;;;;;;17.13;7.22;;;;;;;16.66;66.47;98062.84;4886195;29;20040;-93
2022/06/22 04:04:25;;;;;;;25.67;8.13;;;;;;;16.89;66.97;98091.00;4886360;29;20051;-94
2022/06/22 04:06:55;;;;;;;20.08;7.25;;;;;;;16.93;66.26;98087.47;4888626;29;20032;-94
2022/06/22 04:09:25;;;;;;;10.43;6.05;;;;;;;16.88;66.28;98077.56;4904178;29;20096;-94
2022/06/22 04:12:31;;;;;;;17.58;7.00;;;;;;;16.87;66.06;98076.00;4844505;29;20130;-93
2022/06/22 04:15:34;;;;;;;24.13;7.60;;;;;;;17.03;66.49;98090.28;4828729;29;20093;-93
2022/06/22 04:18:12;;;;;;;21.40;7.18;;;;;;;17.22;66.02;98104.97;4812271;29;20049;-94
2022/06/22 04:20:51;;;;;;;22.42;8.18;;;;;;;17.40;65.46;98127.16;4812390;29;20057;-94
2022/06/22 04:23:26;;;;;;;21.98;7.80;;;;;;;17.25;64.82;98112.47;4813734;29;20046;-93
2022/06/22 04:25:58;;;;;;;20.92;7.53;;;;;;;16.97;64.94;98068.97;4829422;29;20053;-94
2022/06/22 04:28:28;;;;;;;14.25;6.90;;;;;;;17.12;64.39;98103.75;4829452;29;20038;-94
2022/06/22 04:30:56;;;;;;;14.90;6.53;;;;;;;17.11;65.12;98102.16;4813062;29;20060;-93
2022/06/22 04:33:45;;;;;;;14.35;7.22;;;;;;;17.31;65.11;98125.53;4812682;29;20554;-94
2022/06/22 04:36:22;;;;;;;12.40;6.95;;;;;;;17.32;65.35;98132.66;4810451;29;20489;-94
2022/06/22 04:39:12;;;;;;;10.38;7.03;;;;;;;17.32;66.35;98140.94;4815860;29;20116;-92
2022/06/22 04:41:40;;;;;;;20.08;6.97;;;;;;;17.24;65.22;98124.72;4812910;29;20424;-94
2022/06/22 04:44:17;;;;;;;15.52;7.18;;;;;;;17.28;65.35;98145.63;4811955;29;20523;-94
2022/06/22 04:46:48;;;;;;;14.10;7.43;;;;;;;17.09;64.78;98126.63;4808869;29;20268;-93
2022/06/22 04:49:27;;;;;;;15.80;8.18;;;;;;;17.27;66.22;98152.34;4812542;29;20510;-93
2022/06/22 04:51:59;;;;;;;23.50;7.53;;;;;;;17.18;65.52;98127.03;4840081;29;20542;-93
2022/06/22 04:54:31;;;;;;;14.73;7.13;;;;;;;17.02;65.14;98098.94;4854161;29;20068;-94
2022/06/22 04:57:04;;;;;;;15.40;7.57;;;;;;;17.11;65.85;98110.44;4859145;29;20471;-93
2022/06/22 04:59:35;;;;;;;15.70;7.25;;;;;;;17.07;65.28;98112.38;4857202;29;20052;-93
2022/06/22 05:02:03;;;;;;;12.98;7.32;;;;;;;17.03;66.08;98123.41;4869333;29;20048;-92
2022/06/22 05:04:34;;;;;;;11.20;7.40;;;;;;;17.09;66.97;98132.91;4863773;29;20068;-93
2022/06/22 05:07:18;;;;;;;13.13;7.15;;;;;;;17.21;66.79;98156.66;4848714;29;20048;-92
2022/06/22 05:10:28;;;;;;;15.48;7.70;;;;;;;16.95;67.78;98099.69;4849044;29;20048;-93
2022/06/22 05:13:04;;;;;;;12.63;7.97;;;;;;;17.14;66.80;98107.69;4791150;29;20055;-93
2022/06/22 05:15:36;;;;;;;17.88;7.65;;;;;;;17.52;65.85;98148.94;4760615;29;20043;-93
2022/06/22 05:21:19;;;;;;;15.77;8.98;;;;;;;17.89;67.64;98167.28;4788715;30;20048;-91
2022/06/22 05:23:52;;;;;;;14.18;8.45;;;;;;;17.46;65.15;98087.72;4813200;29;20109;-91
2022/06/22 05:26:22;;;;;;;44.10;10.82;;;;;;;18.07;66.10;98154.28;4836981;29;20114;-90
2022/06/22 05:29:08;;;;;;;40.17;10.82;;;;;;;17.76;64.97;98122.56;4812772;29;20069;-90
2022/06/22 05:31:44;;;;;;;28.30;10.75;;;;;;;17.64;65.67;98107.13;4812702;29;20042;-93
2022/06/22 05:34:17;;;;;;;59.30;11.05;;;;;;;17.55;66.36;98099.22;4812215;29;20050;-91
2022/06/22 05:36:48;;;;;;;60.67;10.93;;;;;;;17.75;66.13;98121.78;4809098;29;20054;-93
2022/06/22 05:39:16;;;;;;;36.15;9.65;;;;;;;17.74;64.54;98116.63;4808006;29;20103;-93
2022/06/22 05:41:58;;;;;;;64.15;11.43;;;;;;;17.54;64.35;98097.63;4834931;29;20055;-94
2022/06/22 05:44:24;;;;;;;90.28;15.02;;;;;;;17.45;65.10;98079.81;4822845;29;20042;-92
2022/06/22 05:47:05;;;;;;;82.03;15.73;;;;;;;18.09;66.10;98168.53;4825319;29;20046;-89
2022/06/22 05:49:58;;;;;;;68.80;15.18;;;;;;;18.15;64.45;98171.72;4847591;29;20146;-89
2022/06/22 05:52:42;;;;;;;59.08;12.35;;;;;;;17.86;64.53;98124.59;4911144;29;20056;-91
2022/06/22 05:55:28;;;;;;;103.47;16.00;;;;;;;18.22;64.39;98174.47;4917311;29;20070;-96
2022/06/22 05:58:19;;;;;;;;;;;;;;;18.36;64.38;98195.84;4914686;29;20071;-90
2022/06/22 06:00:48;;;;;;;114.38;16.75;;;;;;;18.14;64.61;98179.19;4912795;29;19923;-90
2022/06/22 06:03:38;;;;;;;65.38;14.35;;;;;;;17.80;64.14;98113.13;4940524;23;20036;-92
2022/06/22 06:06:27;;;;;;;57.30;11.18;;;;;;;18.18;63.57;98165.38;4905121;29;20055;-91
2022/06/22 06:09:00;;;;;;;79.22;14.82;;;;;;;18.12;64.29;98150.34;4922284;29;20043;-89
2022/06/22 06:11:35;;;;;;;60.17;12.55;;;;;;;18.07;62.75;98118.34;4920732;29;20117;-92
2022/06/22 06:14:08;;;;;;;117.30;13.75;;;;;;;18.61;62.11;98201.41;4921101;29;20035;-92
2022/06/22 06:16:50;;;;;;;67.28;11.57;;;;;;;18.18;63.37;98134.94;4920792;29;20082;-91
2022/06/22 06:19:21;;;;;;;93.70;14.57;;;;;;;18.42;62.63;98169.38;4922218;29;20050;-92
2022/06/22 06:21:53;;;;;;;89.15;11.25;;;;;;;18.52;61.21;98183.22;4937579;29;20070;-95
2022/06/22 06:24:34;;;;;;;95.85;14.63;;;;;;;18.58;61.45;98193.91;4926637;29;20078;-91
2022/06/22 06:36:43;;;;;;;37.35;10.07;;;;;;;18.50;62.52;98185.59;4917549;29;20412;-92
2022/06/22 06:39:52;;;;;;;;;;;;;;;;;;;;;
2022/06/22 06:43:44;;;;;;;23.00;7.75;;;;;;;18.62;62.24;98194.72;4847345;29;20049;-95
2022/06/22 06:50:37;;;;;;;60.25;12.45;;;;;;;18.71;62.10;98167.44;4841997;29;20114;-92
2022/06/22 07:03:08;;;;;;;72.82;12.95;;;;;;;19.24;63.51;98233.13;4935873;29;20408;-92
2022/06/22 07:05:34;;;;;;;74.10;13.13;;;;;;;18.98;62.74;98188.00;4919624;29;20061;-85
2022/06/22 07:08:06;;;;;;;;;;;;;;;19.31;62.86;98233.09;4936168;29;20083;-85
2022/06/22 07:10:40;;;;;;;40.53;9.88;;;;;;;19.32;62.93;98222.81;4950767;29;19961;-86
2022/06/22 07:13:29;;;;;;;39.42;9.82;;;;;;;19.57;62.14;98239.38;4932716;29;20099;-86
2022/06/22 07:16:01;;;;;;;34.30;9.25;;;;;;;19.52;61.67;98226.72;4937865;29;20059;-87
2022/06/22 07:18:44;;;;;;;64.13;12.77;;;;;;;19.67;62.10;98249.69;4930896;29;20042;-87
2022/06/22 07:21:56;;;;;;;66.13;12.15;;;;;;;19.42;61.20;98214.47;4934836;29;20027;-90
2022/06/22 07:24:33;;;;;;;64.10;11.85;;;;;;;19.35;60.41;98208.16;4920471;29;20039;-92
2022/06/22 07:27:22;;;;;;;73.30;13.07;;;;;;;19.48;59.79;98240.59;4928614;29;20051;-90
2022/06/22 07:33:32;;;;;;;69.00;11.77;;;;;;;19.41;61.16;98217.66;4925847;29;20094;-93
2022/06/22 07:39:52;;;;;;;42.85;10.25;;;;;;;19.87;60.55;98270.25;4932153;29;20043;-91
2022/06/22 07:42:20;;;;;;;64.55;13.82;;;;;;;19.58;61.44;98218.78;4914300;29;20043;-91
2022/06/22 07:45:36;;;;;;;63.97;11.63;;;;;;;20.19;61.25;98270.13;4932807;29;20103;-90
2022/06/22 07:48:26;;;;;;;30.20;9.10;;;;;;;20.21;59.94;98236.44;4933081;29;20431;-89
2022/06/22 07:51:05;;;;;;;59.20;11.73;;;;;;;20.34;60.96;98248.66;4955552;29;20047;-92
2022/06/22 07:54:21;;;;;;;26.20;9.15;;;;;;;20.59;60.48;98272.72;4931214;29;20034;-86
2022/06/22 07:57:28;;;;;;;87.13;13.98;;;;;;;20.47;56.81;98248.19;4912313;29;20520;-89
2022/06/22 08:00:02;;;;;;;75.20;13.45;;;;;;;20.65;58.23;98288.56;4866935;29;20132;-89
2022/06/22 08:03:24;;;;;;;53.55;10.70;;;;;;;20.63;58.53;98288.19;4867520;29;20055;-88
2022/06/22 08:06:32;;;;;;;;;;;;;;;;;;;;;
2022/06/22 08:09:54;;;;;;;31.83;7.90;;;;;;;20.52;58.34;98300.53;4853735;29;20101;-88
2022/06/22 08:12:40;;;;;;;56.55;10.90;;;;;;;20.48;56.42;98291.41;4869011;29;20045;-93
2022/06/22 08:15:16;;;;;;;68.82;14.18;;;;;;;20.28;56.77;98260.56;4853076;29;20470;-88
2022/06/22 08:17:50;;;;;;;69.78;12.65;;;;;;;20.51;56.16;98290.63;4839664;29;20076;-87
2022/06/22 08:23:23;;;;;;;128.13;18.58;;;;;;;20.46;58.10;98236.28;4865459;29;20061;-90
2022/06/22 08:26:31;;;;;;;148.48;18.90;;;;;;;20.89;55.12;98286.03;4867235;29;20045;-90
2022/06/22 08:29:04;;;;;;;98.18;14.35;;;;;;;20.59;55.81;98240.19;4848791;29;20045;-89
2022/06/22 08:31:54;;;;;;;129.88;18.13;;;;;;;20.93;55.06;98289.59;4849437;29;20078;-90
2022/06/22 08:41:14;;;;;;;129.27;14.93;;;;;;;21.02;55.62;98281.56;4928352;29;20572;-90
2022/06/22 08:44:26;;;;;;;79.85;13.40;;;;;;;21.08;53.37;98279.16;4911724;29;20051;-93
2022/06/22 08:47:30;;;;;;;43.92;9.60;;;;;;;21.18;53.67;98294.16;4932099;23;20063;-89
2022/06/22 08:53:46;;;;;;;76.38;11.10;;;;;;;21.32;54.33;98292.06;4907032;29;20040;-91
2022/06/22 08:56:32;;;;;;;69.45;11.25;;;;;;;21.62;53.60;98287.06;4909850;29;20146;-91
2022/06/22 08:59:23;;;;;;;47.15;8.43;;;;;;;21.84;51.25;98287.63;4884199;29;20489;-91
2022/06/22 09:02:00;;;;;;;75.60;10.00;;;;;;;21.86;50.80;98290.81;4900505;29;20075;-93
2022/06/22 09:05:10;;;;;;;71.80;10.43;;;;;;;21.81;52.08;98292.81;4864029;29;20048;-89
2022/06/22 09:08:03;;;;;;;153.25;20.92;;;;;;;22.11;52.74;98293.28;4859573;29;20963;-92
2022/06/22 09:11:25;;;;;;;106.20;17.55;;;;;;;22.11;50.88;98291.28;4905617;29;20077;-94
2022/06/22 09:14:10;;;;;;;77.60;13.02;;;;;;;21.92;50.69;98298.28;4884520;29;20066;-93
2022/06/22 09:17:27;;;;;;;118.70;17.73;;;;;;;21.79;50.96;98239.59;4856600;29;20051;-92
2022/06/22 09:20:24;;;;;;;46.35;8.93;;;;;;;22.33;50.40;98293.88;4894013;29;20239;-92
2022/06/22 09:23:02;;;;;;;48.72;10.25;;;;;;;21.71;50.16;98221.41;4867787;29;20052;-90
2022/06/22 09:25:50;;;;;;;75.38;12.95;;;;;;;22.06;50.11;98258.38;4869659;29;20048;-91
2022/06/22 09:28:32;;;;;;;91.82;17.08;;;;;;;21.91;48.55;98224.34;4859104;29;20036;-90
2022/06/22 09:31:22;;;;;;;77.82;14.32;;;;;;;22.51;49.65;98302.75;4901827;29;20052;-90
2022/06/22 09:34:27;;;;;;;76.80;10.68;;;;;;;22.53;46.86;98303.16;4888665;29;20048;-91
2022/06/22 09:37:31;;;;;;;46.93;10.63;;;;;;;22.57;47.79;98301.09;4843648;29;20169;-89
2022/06/22 09:40:22;;;;;;;55.75;12.63;;;;;;;22.66;48.98;98300.59;4831350;29;20294;-90
2022/06/22 09:47:31;;;;;;;;;;;;;;;;;;;;;
2022/06/22 09:50:50;;;;;;;32.08;8.68;;;;;;;23.12;46.26;98299.16;4870928;29;20097;-91
2022/06/22 09:53:40;;;;;;;32.65;7.47;;;;;;;23.09;46.18;98295.22;4917586;29;20044;-91
2022/06/22 09:59:29;;;;;;;28.98;7.78;;;;;;;22.94;46.54;98310.56;4930478;29;20059;-91
2022/06/22 10:02:44;;;;;;;19.92;6.68;;;;;;;22.97;46.03;98307.72;4882047;29;20048;-90
2022/06/22 10:05:31;;;;;;;22.20;5.90;;;;;;;23.11;47.20;98306.75;4901716;29;20131;-92
2022/06/22 10:08:30;;;;;;;35.70;8.00;;;;;;;22.79;44.49;98282.09;4864403;29;20795;-92
2022/06/22 10:11:25;;;;;;;29.17;4.60;;;;;;;23.06;46.46;98304.41;4894686;29;21733;-90
2022/06/22 10:14:21;;;;;;;82.45;7.75;;;;;;;23.15;46.20;98313.03;4906965;29;20105;-89
2022/06/22 10:17:07;;;;;;;25.73;3.75;;;;;;;23.19;43.32;98313.75;4898454;29;20052;-90
2022/06/22 10:20:14;;;;;;;35.25;5.10;;;;;;;23.16;42.50;98320.19;4910133;29;20727;-92
2022/06/22 10:23:25;;;;;;;16.98;4.07;;;;;;;22.49;43.54;98288.50;4897567;29;20040;-92
2022/06/22 10:26:41;;;;;;;50.08;7.82;;;;;;;22.77;44.38;98326.31;4882807;29;20048;-92
2022/06/22 10:29:38;;;;;;;34.47;5.82;;;;;;;22.71;44.43;98320.44;4892442;29;20043;-93
2022/06/22 10:32:43;;;;;;;40.03;6.68;;;;;;;22.80;46.42;98333.03;4870776;29;20134;-90
2022/06/22 10:35:48;;;;;;;36.72;6.07;;;;;;;22.88;46.93;98335.31;4916542;29;20184;-90
2022/06/22 10:38:40;;;;;;;19.58;4.18;;;;;;;22.44;46.02;98286.16;4910365;29;20044;-91
2022/06/22 10:48:37;;;;;;;21.38;4.40;;;;;;;22.27;47.07;98352.78;4813257;29;20050;-90
2022/06/22 10:51:56;;;;;;;13.57;3.60;;;;;;;22.07;48.37;98357.34;4800199;29;20125;-93
2022/06/22 10:54:53;;;;;;;19.55;4.60;;;;;;;21.76;47.78;98321.09;4810337;29;20629;-91
2022/06/22 10:57:43;;;;;;;17.27;4.60;;;;;;;21.70;48.05;98305.25;4779388;29;20151;-93
2022/06/22 11:00:25;;;;;;;20.65;4.22;;;;;;;22.03;47.73;98354.59;4807694;29;20061;-92
2022/06/22 11:03:35;;;;;;;18.88;4.22;;;;;;;21.97;47.46;98353.47;4792753;29;20058;-90
2022/06/22 11:12:01;;;;;;;12.88;3.65;;;;;;;21.72;48.74;98362.06;4924430;28;20049;-90
2022/06/22 11:14:46;;;;;;;15.75;4.28;;;;;;;21.67;47.69;98368.06;4926801;28;20294;-91
2022/06/22 11:17:52;;;;;;;13.90;3.65;;;;;;;21.49;48.48;98343.19;4916191;29;20071;-93
2022/06/22 11:20:32;;;;;;;9.00;3.65;;;;;;;21.65;47.44;98370.44;4881840;29;20053;-92
2022/06/22 11:23:08;;;;;;;20.38;4.57;;;;;;;21.59;48.64;98377.69;4863306;29;20052;-89
2022/06/22 11:32:53;;;;;;;8.65;2.97;;;;;;;21.57;48.24;98389.19;4864835;29;20076;-94
2022/06/22 11:36:02;;;;;;;47.13;6.97;;;;;;;21.57;47.61;98382.84;4870334;29;20051;-93
2022/06/22 11:38:47;;;;;;;21.70;4.60;;;;;;;21.56;48.84;98389.63;4834769;29;20076;-90
2022/06/22 11:41:55;;;;;;;53.25;7.72;;;;;;;21.50;48.39;98382.91;4833184;29;20049;-93
2022/06/22 11:44:41;;;;;;;48.33;8.52;;;;;;;21.06;49.05;98339.91;4857934;29;20033;-93
2022/06/22 11:47:34;;;;;;;36.08;6.30;;;;;;;21.24;49.13;98393.38;4866618;29;20088;-92
2022/06/22 11:50:40;;;;;;;84.47;11.80;;;;;;;21.25;50.97;98399.72;4885148;29;20131;-90
2022/06/22 11:53:54;;;;;;;97.75;11.38;;;;;;;21.25;50.07;98396.94;4901919;29;20558;-93
2022/06/22 12:03:12;;;;;;;97.00;12.00;;;;;;;21.32;51.01;98350.44;4945076;23;20436;-94
2022/06/22 12:09:01;;;;;;;65.15;9.27;;;;;;;21.68;51.96;98400.22;5050861;23;20486;-92
2022/06/22 12:11:52;;;;;;;65.47;8.38;;;;;;;21.77;50.34;98400.56;4878775;29;20108;-96
2022/06/22 12:17:48;;;;;;;;;;;;;;;22.03;49.09;98393.56;4863010;29;20135;-94
2022/06/22 12:21:05;;;;;;;36.78;6.93;;;;;;;21.94;49.61;98392.47;4852495;29;20412;-92
2022/06/22 12:23:39;;;;;;;41.10;5.15;;;;;;;21.58;49.16;98335.16;4845653;29;20075;-93
2022/06/22 12:26:28;;;;;;;20.42;3.88;;;;;;;21.89;49.48;98404.84;4835828;29;20041;-91
2022/06/22 12:29:49;;;;;;;85.07;10.30;;;;;;;21.85;49.85;98398.50;4838713;29;20143;-95
2022/06/22 12:32:24;;;;;;;68.43;10.75;;;;;;;21.77;48.84;98335.78;4865499;29;20041;-95
2022/06/22 12:35:20;;;;;;;69.55;8.98;;;;;;;21.85;48.72;98320.59;4887597;29;20040;-93
2022/06/22 12:38:17;;;;;;;35.38;5.40;;;;;;;22.24;47.96;98381.44;4890602;29;20096;-95
2022/06/22 12:45:20;;;;;;;28.35;4.22;;;;;;;22.09;49.26;98352.16;4831283;29;20085;-94
2022/06/22 12:48:33;;;;;;;69.22;5.28;;;;;;;22.46;46.45;98392.34;4810733;29;20512;-94
2022/06/22 12:51:27;;;;;;;171.93;12.85;;;;;;;22.93;46.97;98385.03;4809323;29;20079;-96
2022/06/22 12:58:09;;;;;;;76.82;11.20;;;;;;;22.85;46.36;98383.53;4905355;29;20482;-95
2022/06/22 13:00:37;;;;;;;54.28;8.30;;;;;;;22.28;45.98;98300.66;4904464;29;20059;-96
2022/06/22 13:03:43;;;;;;;167.75;16.42;;;;;;;22.66;46.41;98378.59;4906404;29;20047;-96
2022/06/22 13:06:24;;;;;;;101.53;11.88;;;;;;;21.91;46.86;98313.38;5010864;23;20097;-96
2022/06/22 13:08:51;;;;;;;165.85;17.25;;;;;;;21.84;47.99;98312.66;4949191;28;20066;-94
2022/06/22 13:11:30;;;;;;;84.68;9.95;;;;;;;22.43;48.46;98398.75;4942573;23;20087;-94
2022/06/22 13:14:42;;;;;;;44.60;7.20;;;;;;;22.50;46.92;98395.88;4909078;29;20102;-95
2022/06/22 13:17:47;;;;;;;70.90;8.45;;;;;;;22.28;47.37;98354.38;4924427;29;20046;-90
2022/06/22 13:21:17;;;;;;;92.63;11.65;;;;;;;22.40;46.32;98382.88;4896632;29;20513;-91
2022/06/22 13:24:02;;;;;;;112.53;12.05;;;;;;;22.25;46.77;98359.97;4867006;29;20080;-91
2022/06/22 13:30:30;;;;;;;96.78;11.32;;;;;;;22.47;45.78;98391.16;4881978;29;20044;-94
2022/06/22 13:33:46;;;;;;;110.57;11.60;;;;;;;22.48;45.95;98340.63;4863475;29;20092;-94
2022/06/22 13:36:31;;;;;;;54.95;7.20;;;;;;;22.98;45.13;98376.22;4869698;29;20036;-89
2022/06/22 13:39:01;;;;;;;45.35;6.93;;;;;;;23.41;44.73;98369.19;4883958;29;20040;-95
2022/06/22 13:42:18;;;;;;;37.75;4.28;;;;;;;23.19;41.64;98366.75;4889082;29;20044;-94
2022/06/22 13:45:31;;;;;;;22.77;4.20;;;;;;;23.00;40.93;98375.78;4869198;29;20059;-92
2022/06/22 13:48:28;;;;;;;36.90;5.22;;;;;;;22.85;42.28;98379.94;4870254;29;20135;-94
2022/06/22 13:58:19;;;;;;;;;;;;;;;23.08;40.80;98391.22;4918011;29;20526;-95
2022/06/22 14:01:21;;;;;;;37.63;5.25;;;;;;;23.15;40.23;98368.81;4883725;29;20477;-95
2022/06/22 14:04:08;;;;;;;20.50;3.88;;;;;;;23.15;38.45;98385.53;4996414;23;20043;-95
2022/06/22 14:07:28;;;;;;;61.08;8.25;;;;;;;23.12;40.93;98400.31;4939169;29;20047;-93
2022/06/22 14:10:51;;;;;;;71.57;7.57;;;;;;;22.87;41.55;98399.81;4922451;29;20039;-93
2022/06/22 14:14:04;;;;;;;49.25;7.07;;;;;;;23.19;40.97;98399.41;4954617;29;20039;-94
2022/06/22 14:16:49;;;;;;;52.88;6.45;;;;;;;23.04;40.34;98401.59;4934604;23;20055;-96
2022/06/22 14:19:45;;;;;;;66.57;9.15;;;;;;;22.69;41.24;98361.03;4933694;29;20043;-95
2022/06/22 14:23:11;;;;;;;225.00;15.88;;;;;;;22.79;42.01;98399.13;4965409;28;20857;-94
2022/06/22 14:30:10;;;;;;;81.25;8.88;;;;;;;22.43;42.50;98409.91;4888024;29;20181;-93
2022/06/22 14:33:01;;;;;;;62.90;10.57;;;;;;;21.89;43.84;98326.94;4869204;29;20135;-93
2022/06/22 14:38:49;;;;;;;168.02;18.73;;;;;;;22.32;44.43;98412.81;4903738;29;20052;-92
2022/06/22 14:42:16;;;;;;;166.93;25.67;;;;;;;22.23;44.90;98418.84;4896084;29;20046;-93
2022/06/22 14:45:39;;;;;;;141.57;21.13;;;;;;;22.29;47.03;98413.63;4899789;29;20051;-95
2022/06/22 14:48:52;;;;;;;92.47;12.80;;;;;;;22.31;46.27;98408.41;4888128;29;20054;-94
2022/06/22 14:51:55;;;;;;;81.68;11.02;;;;;;;22.56;44.45;98413.72;4944050;23;20093;-96
2022/06/22 14:54:43;;;;;;;111.28;17.33;;;;;;;22.79;44.60;98364.91;4951187;29;20063;-94
2022/06/22 14:57:13;;;;;;;40.28;7.53;;;;;;;23.44;44.07;98421.34;4917458;29;20039;-93